PWSweather.com
Personal Weather Stations
Station Observations
SWHWX01
St AppolinardFR 38160

St AppolinardFR 38160

Lat: 45.191, Lon: 5.268

Elevation: 1460

Station Type: Davis Vantage Pro2 Plus

www.sweetwebhome.com/?show=wxindex

High Low Average
Temperature 68.1°F20.1°C 51.8°F11.0°C 59.3°F15.2°C
Dew Point 54.2°F12.3°C 45.8°F7.7°C 50.5°F10.3°C
Winds 9.3 mph 15.0 kmh 0.4 mph 0.6 kmh 4.0 mph SW6.4 kmh SW
Wind Gusts 15.0 mph24.1 kmh 2.0 mph3.2 kmh 8.0 mph12.9 kmh
Humidity 91% 59% 74%
Pressure 30.14 in1020.7 mb 30.08 in1018.6 mb -
Precipitation 0.00 in0.0 mm - -
Hour Temp Dew Point Humidity Winds Wind Gusts Pressure Precip Precip Rate Daily Precip Total
12:00 AM 57.4°F14.1°C 50.6°F10.3°C 78% 10.7 mph NNW17.2 kmh NNW 14.0 mph22.5 kmh 30.09 in1019.0 mb - 0.00 in0.0 mm 0.00 in0.0 mm
12:30 AM 56.6°F13.7°C 50.2°F10.1°C 79% 9.9 mph NNW15.9 kmh NNW 14.0 mph22.5 kmh 30.09 in1019.0 mb - 0.00 in0.0 mm 0.00 in0.0 mm
01:00 AM 55.9°F13.3°C 50.2°F10.1°C 81% 5.9 mph NW9.5 kmh NW 8.0 mph12.9 kmh 30.09 in1019.0 mb - 0.00 in0.0 mm 0.00 in0.0 mm
01:30 AM 54.6°F12.6°C 49.9°F9.9°C 84% 5.5 mph NNW8.9 kmh NNW 12.0 mph19.3 kmh 30.09 in1019.0 mb - 0.00 in0.0 mm 0.00 in0.0 mm
02:00 AM 54.2°F12.3°C 49.4°F9.7°C 84% 7.9 mph NNW12.7 kmh NNW 11.0 mph17.7 kmh 30.08 in1018.6 mb - 0.00 in0.0 mm 0.00 in0.0 mm
02:30 AM 53.9°F12.2°C 49.5°F9.7°C 85% 6.2 mph NNW10.0 kmh NNW 9.0 mph14.5 kmh 30.08 in1018.6 mb - 0.00 in0.0 mm 0.00 in0.0 mm
03:00 AM 53.8°F12.1°C 49.4°F9.7°C 85% 2.9 mph N4.7 kmh N 6.0 mph9.7 kmh 30.08 in1018.6 mb - 0.00 in0.0 mm 0.00 in0.0 mm
03:30 AM 53.7°F12.1°C 49.6°F9.8°C 86% 4.6 mph NNW7.4 kmh NNW 6.0 mph9.7 kmh 30.08 in1018.6 mb - 0.00 in0.0 mm 0.00 in0.0 mm
04:00 AM 52.8°F11.6°C 49.0°F9.4°C 87% 1.1 mph NE1.8 kmh NE 2.0 mph3.2 kmh 30.09 in1019.0 mb - 0.00 in0.0 mm 0.00 in0.0 mm
04:30 AM 52.4°F11.3°C 48.9°F9.4°C 88% 0.9 mph N1.4 kmh N 6.0 mph9.7 kmh 30.09 in1019.0 mb - 0.00 in0.0 mm 0.00 in0.0 mm
05:00 AM 52.3°F11.3°C 49.2°F9.6°C 89% 2.3 mph NNW3.7 kmh NNW 4.0 mph6.4 kmh 30.09 in1019.0 mb - 0.00 in0.0 mm 0.00 in0.0 mm
05:30 AM 52.3°F11.3°C 49.5°F9.7°C 90% 3.4 mph NNW5.5 kmh NNW 7.0 mph11.3 kmh 30.09 in1019.0 mb - 0.00 in0.0 mm 0.00 in0.0 mm
06:00 AM 52.1°F11.2°C 49.3°F9.6°C 90% 0.4 mph N0.6 kmh N 3.0 mph4.8 kmh 30.09 in1019.0 mb - 0.00 in0.0 mm 0.00 in0.0 mm
06:30 AM 51.8°F11.0°C 49.0°F9.4°C 90% 3.3 mph N5.3 kmh N 7.0 mph11.3 kmh 30.10 in1019.3 mb - 0.00 in0.0 mm 0.00 in0.0 mm
07:00 AM 52.1°F11.2°C 49.6°F9.8°C 91% 3.5 mph NNW5.6 kmh NNW 7.0 mph11.3 kmh 30.10 in1019.3 mb - 0.00 in0.0 mm 0.00 in0.0 mm
07:30 AM 52.6°F11.4°C 49.8°F9.9°C 90% 3.9 mph NNW6.3 kmh NNW 6.0 mph9.7 kmh 30.11 in1019.6 mb - 0.00 in0.0 mm 0.00 in0.0 mm
08:00 AM 52.6°F11.4°C 49.4°F9.7°C 89% 4.4 mph NNW7.1 kmh NNW 7.0 mph11.3 kmh 30.12 in1020.0 mb - 0.00 in0.0 mm 0.00 in0.0 mm
08:30 AM 53.3°F11.8°C 49.5°F9.7°C 87% 8.1 mph N13.0 kmh N 12.0 mph19.3 kmh 30.12 in1020.0 mb - 0.00 in0.0 mm 0.00 in0.0 mm
09:00 AM 54.8°F12.7°C 50.1°F10.1°C 84% 6.3 mph NW10.1 kmh NW 12.0 mph19.3 kmh 30.12 in1020.0 mb - 0.00 in0.0 mm 0.00 in0.0 mm
09:30 AM 56.3°F13.5°C 51.2°F10.7°C 83% 3.3 mph N5.3 kmh N 6.0 mph9.7 kmh 30.13 in1020.3 mb - 0.00 in0.0 mm 0.00 in0.0 mm
10:00 AM 57.8°F14.3°C 50.6°F10.3°C 77% 3.2 mph N5.1 kmh N 14.0 mph22.5 kmh 30.14 in1020.7 mb - 0.00 in0.0 mm 0.00 in0.0 mm
10:30 AM 58.6°F14.8°C 51.1°F10.6°C 76% 5.0 mph N8.0 kmh N 7.0 mph11.3 kmh 30.13 in1020.3 mb - 0.00 in0.0 mm 0.00 in0.0 mm
11:00 AM 61.4°F16.3°C 52.3°F11.3°C 72% 4.3 mph NE6.9 kmh NE 9.0 mph14.5 kmh 30.13 in1020.3 mb - 0.00 in0.0 mm 0.00 in0.0 mm
11:30 AM 62.9°F17.2°C 52.1°F11.2°C 68% 6.2 mph NW10.0 kmh NW 11.0 mph17.7 kmh 30.12 in1020.0 mb - 0.00 in0.0 mm 0.00 in0.0 mm
12:00 PM 62.3°F16.8°C 52.0°F11.1°C 69% 1.4 mph N2.3 kmh N 4.0 mph6.4 kmh 30.12 in1020.0 mb - 0.00 in0.0 mm 0.00 in0.0 mm
12:30 PM 63.4°F17.4°C 53.4°F11.9°C 70% 2.6 mph N4.2 kmh N 12.0 mph19.3 kmh 30.11 in1019.6 mb - 0.00 in0.0 mm 0.00 in0.0 mm
01:00 PM 64.6°F18.1°C 53.4°F11.9°C 67% 3.3 mph NNE5.3 kmh NNE 7.0 mph11.3 kmh 30.11 in1019.6 mb - 0.00 in0.0 mm 0.00 in0.0 mm
01:30 PM 64.4°F18.0°C 53.2°F11.8°C 67% 0.9 mph NNE1.4 kmh NNE 2.0 mph3.2 kmh 30.11 in1019.6 mb - 0.00 in0.0 mm 0.00 in0.0 mm
02:00 PM 63.3°F17.4°C 53.7°F12.1°C 71% 1.3 mph ENE2.1 kmh ENE 3.0 mph4.8 kmh 30.11 in1019.6 mb - 0.00 in0.0 mm 0.00 in0.0 mm
02:30 PM 64.2°F17.9°C 54.2°F12.3°C 70% 3.5 mph N5.6 kmh N 8.0 mph12.9 kmh 30.10 in1019.3 mb - 0.00 in0.0 mm 0.00 in0.0 mm
03:00 PM 65.3°F18.5°C 52.8°F11.6°C 64% 5.4 mph NNW8.7 kmh NNW 8.0 mph12.9 kmh 30.09 in1019.0 mb - 0.00 in0.0 mm 0.00 in0.0 mm
03:30 PM 65.3°F18.5°C 52.8°F11.6°C 64% 9.3 mph N15.0 kmh N 15.0 mph24.1 kmh 30.08 in1018.6 mb - 0.00 in0.0 mm 0.00 in0.0 mm
04:00 PM 68.1°F20.1°C 54.1°F12.3°C 61% 9.1 mph N14.6 kmh N 14.0 mph22.5 kmh 30.08 in1018.6 mb - 0.00 in0.0 mm 0.00 in0.0 mm
04:30 PM 67.8°F19.9°C 53.4°F11.9°C 60% 4.3 mph N6.9 kmh N 8.0 mph12.9 kmh 30.08 in1018.6 mb - 0.00 in0.0 mm 0.00 in0.0 mm
05:00 PM 66.5°F19.2°C 53.1°F11.7°C 62% 2.7 mph N4.3 kmh N 8.0 mph12.9 kmh 30.08 in1018.6 mb - 0.00 in0.0 mm 0.00 in0.0 mm
05:30 PM 66.1°F18.9°C 51.8°F11.0°C 60% 6.2 mph N10.0 kmh N 13.0 mph20.9 kmh 30.08 in1018.6 mb - 0.00 in0.0 mm 0.00 in0.0 mm
06:00 PM 65.1°F18.4°C 51.3°F10.7°C 61% 4.0 mph N6.4 kmh N 6.0 mph9.7 kmh 30.09 in1019.0 mb - 0.00 in0.0 mm 0.00 in0.0 mm
06:30 PM 64.0°F17.8°C 51.2°F10.7°C 63% 4.0 mph NW6.4 kmh NW 7.0 mph11.3 kmh 30.09 in1019.0 mb - 0.00 in0.0 mm 0.00 in0.0 mm
07:00 PM 64.0°F17.8°C 49.4°F9.7°C 59% 2.7 mph N4.3 kmh N 5.0 mph8.0 kmh 30.09 in1019.0 mb - 0.00 in0.0 mm 0.00 in0.0 mm
07:30 PM 63.2°F17.3°C 49.6°F9.8°C 61% 3.3 mph N5.3 kmh N 7.0 mph11.3 kmh 30.09 in1019.0 mb - 0.00 in0.0 mm 0.00 in0.0 mm
08:00 PM 63.0°F17.2°C 50.2°F10.1°C 63% 2.0 mph NNE3.2 kmh NNE 6.0 mph9.7 kmh 30.10 in1019.3 mb - 0.00 in0.0 mm 0.00 in0.0 mm
08:30 PM 62.9°F17.2°C 50.1°F10.1°C 63% 2.1 mph WNW3.4 kmh WNW 7.0 mph11.3 kmh 30.10 in1019.3 mb - 0.00 in0.0 mm 0.00 in0.0 mm
09:00 PM 61.3°F16.3°C 49.4°F9.7°C 65% 2.0 mph N3.2 kmh N 5.0 mph8.0 kmh 30.11 in1019.6 mb - 0.00 in0.0 mm 0.00 in0.0 mm
09:30 PM 60.4°F15.8°C 48.2°F9.0°C 64% 2.1 mph NNE3.4 kmh NNE 2.0 mph3.2 kmh 30.11 in1019.6 mb - 0.00 in0.0 mm 0.00 in0.0 mm
10:00 PM 60.2°F15.7°C 47.1°F8.4°C 62% 3.8 mph N6.1 kmh N 7.0 mph11.3 kmh 30.11 in1019.6 mb - 0.00 in0.0 mm 0.00 in0.0 mm
10:30 PM 59.7°F15.4°C 46.7°F8.2°C 62% 5.4 mph NNE8.7 kmh NNE 9.0 mph14.5 kmh 30.11 in1019.6 mb - 0.00 in0.0 mm 0.00 in0.0 mm
11:00 PM 59.3°F15.2°C 45.8°F7.7°C 61% 4.5 mph NW7.2 kmh NW 6.0 mph9.7 kmh 30.11 in1019.6 mb - 0.00 in0.0 mm 0.00 in0.0 mm
11:30 PM 59.3°F15.2°C 46.3°F7.9°C 62% 1.2 mph N1.9 kmh N 6.0 mph9.7 kmh 30.11 in1019.6 mb - 0.00 in0.0 mm 0.00 in0.0 mm